createdAt,value
2023-01-12T00:00:03.631Z,1008.24
2023-01-12T00:00:44.215Z,1008.24
2023-01-12T00:01:24.738Z,1008.23
2023-01-12T00:02:07.418Z,1008.12
2023-01-12T00:02:45.888Z,1008.23
2023-01-12T00:03:26.442Z,1008.24
2023-01-12T00:04:06.965Z,1008.19
2023-01-12T00:04:47.452Z,1008.2
2023-01-12T00:05:27.988Z,1008.24
2023-01-12T00:06:08.530Z,1008.22
2023-01-12T00:06:49.054Z,1008.15
2023-01-12T00:07:29.609Z,1008.24
2023-01-12T00:08:10.144Z,1008.15
2023-01-12T00:08:50.709Z,1008.25
2023-01-12T00:09:32.010Z,1008.24
2023-01-12T00:10:13.333Z,1008.24
2023-01-12T00:10:53.919Z,1008.2
2023-01-12T00:11:34.484Z,1008.14
2023-01-12T00:12:15.172Z,1008.24
2023-01-12T00:12:55.698Z,1008.24
2023-01-12T00:13:36.195Z,1008.22
2023-01-12T00:14:16.751Z,1008.22
2023-01-12T00:14:57.302Z,1008.23
2023-01-12T00:15:37.846Z,1008.23
2023-01-12T00:16:18.437Z,1008.16
2023-01-12T00:16:58.946Z,1008.21
2023-01-12T00:17:39.496Z,1008.2
2023-01-12T00:19:37.457Z,1008.18
2023-01-12T00:20:18.077Z,1008.22
2023-01-12T00:20:58.601Z,1008.21
2023-01-12T00:21:39.702Z,1008.2
2023-01-12T00:22:20.230Z,1008.14
2023-01-12T00:23:00.740Z,1008.14
2023-01-12T00:23:41.284Z,1008.12
2023-01-12T00:25:54.399Z,1008.1
2023-01-12T00:26:34.927Z,1008.13
2023-01-12T00:27:15.441Z,1008.04
2023-01-12T00:27:55.969Z,1008.17
2023-01-12T00:28:36.539Z,1008.12
2023-01-12T00:29:17.057Z,1007.91
2023-01-12T00:29:57.591Z,1008.04
2023-01-12T00:30:39.067Z,1007.96
2023-01-12T00:31:19.633Z,1007.98
2023-01-12T00:32:00.094Z,1007.99
2023-01-12T00:32:40.637Z,1008.02
2023-01-12T00:33:21.185Z,1007.97
2023-01-12T00:34:01.753Z,1008.03
2023-01-12T00:34:42.299Z,1008
2023-01-12T00:35:22.801Z,1008.04
2023-01-12T00:36:03.345Z,1008
2023-01-12T00:36:43.841Z,1007.97
2023-01-12T00:37:24.416Z,1007.97
2023-01-12T00:38:04.917Z,1007.91
2023-01-12T00:38:45.495Z,1007.96
2023-01-12T00:39:26.030Z,1007.87
2023-01-12T00:40:06.601Z,1007.89
2023-01-12T00:40:47.968Z,1007.88
2023-01-12T00:41:28.514Z,1007.87
2023-01-12T00:42:09.067Z,1007.82
2023-01-12T00:42:49.617Z,1007.85
2023-01-12T00:43:30.171Z,1007.86
2023-01-12T00:44:10.732Z,1007.85
2023-01-12T00:44:51.267Z,1007.94
2023-01-12T00:45:31.824Z,1007.9
2023-01-12T00:46:12.457Z,1007.89
2023-01-12T00:46:52.921Z,1007.88
2023-01-12T00:47:33.454Z,1007.94
2023-01-12T00:48:14.032Z,1007.97
2023-01-12T00:48:54.574Z,1008.01
2023-01-12T00:49:35.130Z,1007.94
2023-01-12T00:50:17.908Z,1007.97
2023-01-12T00:50:56.314Z,1007.99
2023-01-12T00:51:36.882Z,1008.01
2023-01-12T00:52:29.217Z,1008.02
2023-01-12T00:52:57.949Z,1007.99
2023-01-12T00:53:38.468Z,1007.96
2023-01-12T00:54:19.006Z,1007.98
2023-01-12T00:54:59.560Z,1008.01
2023-01-12T00:55:40.088Z,1007.94
2023-01-12T00:56:20.641Z,1007.97
2023-01-12T00:58:19.088Z,1007.99
2023-01-12T00:58:59.638Z,1007.88
2023-01-12T00:59:40.702Z,1007.89
2023-01-12T01:00:21.254Z,1007.93
2023-01-12T01:02:34.392Z,1007.88
2023-01-12T01:03:14.884Z,1007.9
2023-01-12T01:03:55.361Z,1007.95
2023-01-12T01:04:36.356Z,1007.9
2023-01-12T01:06:54.507Z,1007.91
2023-01-12T01:07:35.034Z,1007.92
2023-01-12T01:08:15.585Z,1007.92
2023-01-12T01:08:56.150Z,1007.93
2023-01-12T01:09:36.700Z,1007.96
2023-01-12T01:11:50.531Z,1007.98
2023-01-12T01:12:31.927Z,1007.94
2023-01-12T01:13:12.463Z,1008.06
2023-01-12T01:13:52.964Z,1008.07
2023-01-12T01:16:12.707Z,1008.1
2023-01-12T01:16:53.367Z,1008.12
2023-01-12T01:17:33.921Z,1008.11
2023-01-12T01:18:14.472Z,1008.15
2023-01-12T01:18:55.119Z,1008.12
2023-01-12T01:19:35.676Z,1008.02
2023-01-12T01:20:16.225Z,1008.13
2023-01-12T01:20:56.880Z,1008.11
2023-01-12T01:21:37.401Z,1008.07
2023-01-12T01:22:18.058Z,1008.05
2023-01-12T01:22:58.605Z,1008.05
2023-01-12T01:23:39.239Z,1008.04
2023-01-12T01:24:20.011Z,1008.06
2023-01-12T01:25:00.598Z,1007.98
2023-01-12T01:25:41.143Z,1007.94
2023-01-12T01:26:21.701Z,1007.97
2023-01-12T01:27:02.222Z,1008.01
2023-01-12T01:27:42.799Z,1008.04
2023-01-12T01:28:23.353Z,1008.01
2023-01-12T01:29:03.897Z,1007.99
2023-01-12T01:29:44.514Z,1007.99
2023-01-12T01:30:25.233Z,1007.97
2023-01-12T01:31:06.014Z,1008.02
2023-01-12T01:31:46.516Z,1007.97
2023-01-12T01:32:27.067Z,1007.98
2023-01-12T01:33:08.546Z,1007.97
2023-01-12T01:33:49.083Z,1008.02
2023-01-12T01:34:29.687Z,1008.09
2023-01-12T01:35:10.192Z,1008.11
2023-01-12T01:35:50.775Z,1008.15
2023-01-12T01:36:31.304Z,1008.09
2023-01-12T01:37:11.853Z,1008.1
2023-01-12T01:37:52.484Z,1008.05
2023-01-12T01:38:33.006Z,1008.16
2023-01-12T01:39:13.613Z,1008.03
2023-01-12T01:39:54.146Z,1008.09
2023-01-12T01:40:34.699Z,1008.09
2023-01-12T01:41:15.255Z,1008.08
2023-01-12T01:41:55.813Z,1008.11
2023-01-12T01:42:36.396Z,1008.06
2023-01-12T01:43:16.868Z,1008.09
2023-01-12T01:43:57.424Z,1008.08
2023-01-12T01:44:37.968Z,1008.01
2023-01-12T01:45:18.558Z,1008.1
2023-01-12T01:45:59.120Z,1008.08
2023-01-12T01:46:39.719Z,1008.1
2023-01-12T01:47:20.326Z,1008.15
2023-01-12T01:48:00.855Z,1008.13
2023-01-12T01:48:41.415Z,1008.05
2023-01-12T01:49:21.926Z,1008.01
2023-01-12T01:50:02.512Z,1008.13
2023-01-12T01:50:43.032Z,1008.09
2023-01-12T01:51:23.583Z,1008.08
2023-01-12T01:52:04.120Z,1008.05
2023-01-12T01:52:44.727Z,1008.07
2023-01-12T01:53:25.296Z,1008.09
2023-01-12T01:54:05.825Z,1008.11
2023-01-12T01:54:46.467Z,1008.02
2023-01-12T01:55:26.989Z,1007.99
2023-01-12T01:56:07.567Z,1007.97
2023-01-12T01:56:48.088Z,1008.04
2023-01-12T01:57:28.650Z,1007.99
2023-01-12T01:58:09.194Z,1007.95
2023-01-12T01:58:49.781Z,1008.05
2023-01-12T02:01:02.869Z,1008.01
2023-01-12T02:01:43.440Z,1007.97
2023-01-12T02:02:23.893Z,1007.96
2023-01-12T02:03:04.489Z,1007.99
2023-01-12T02:05:21.833Z,1007.95
2023-01-12T02:06:03.969Z,1007.93
2023-01-12T02:06:45.151Z,1007.91
2023-01-12T02:07:28.222Z,1007.91
2023-01-12T02:09:48.850Z,1007.8
2023-01-12T02:10:29.368Z,1007.83
2023-01-12T02:11:09.960Z,1007.96
2023-01-12T02:11:50.476Z,1007.77
2023-01-12T02:12:31.770Z,1007.73
2023-01-12T02:13:12.295Z,1007.79
2023-01-12T02:13:52.841Z,1007.79
2023-01-12T02:14:33.397Z,1007.72
2023-01-12T02:15:13.942Z,1007.73
2023-01-12T02:15:54.604Z,1007.77
2023-01-12T02:16:35.048Z,1007.74
2023-01-12T02:17:15.594Z,1007.65
2023-01-12T02:17:56.142Z,1007.69
2023-01-12T02:18:36.695Z,1007.67
2023-01-12T02:19:17.249Z,1007.67
2023-01-12T02:19:57.802Z,1007.6
2023-01-12T02:20:38.384Z,1007.57
2023-01-12T02:21:18.905Z,1007.58
2023-01-12T02:21:59.443Z,1007.45
2023-01-12T02:22:40.014Z,1007.47
2023-01-12T02:23:20.565Z,1007.47
2023-01-12T02:25:36.455Z,1007.47
2023-01-12T02:26:16.868Z,1007.4
2023-01-12T02:26:57.391Z,1007.36
2023-01-12T02:27:37.896Z,1007.39
2023-01-12T02:28:18.419Z,1007.39
2023-01-12T02:30:31.467Z,1007.23
2023-01-12T02:31:12.896Z,1007.2
2023-01-12T02:31:53.406Z,1007.45
2023-01-12T02:32:34.888Z,1007.35
2023-01-12T02:33:15.397Z,1007.37
2023-01-12T02:35:29.639Z,1007.46
2023-01-12T02:36:10.181Z,1007.4
2023-01-12T02:36:50.698Z,1007.48
2023-01-12T02:37:31.206Z,1007.5
2023-01-12T02:38:11.723Z,1007.49
2023-01-12T02:38:52.970Z,1007.51
2023-01-12T02:39:33.483Z,1007.51
2023-01-12T02:40:14.002Z,1007.45
2023-01-12T02:40:54.573Z,1007.44
2023-01-12T02:41:35.065Z,1007.39
2023-01-12T02:42:15.585Z,1007.34
2023-01-12T02:42:56.091Z,1007.3
2023-01-12T02:43:36.627Z,1007.33
2023-01-12T02:44:17.844Z,1007.3
2023-01-12T02:44:58.369Z,1007.14
2023-01-12T02:45:38.909Z,1007.18
2023-01-12T02:46:19.480Z,1007.2
2023-01-12T02:46:59.943Z,1007.17
2023-01-12T02:47:40.458Z,1007.23
2023-01-12T02:48:20.980Z,1007.16
2023-01-12T02:49:02.472Z,1007.16
2023-01-12T02:49:43.008Z,1007.1
2023-01-12T02:50:23.519Z,1007.16
2023-01-12T02:51:04.036Z,1007.17
2023-01-12T02:51:44.558Z,1007.2
2023-01-12T02:52:25.069Z,1007.21
2023-01-12T02:53:05.614Z,1007.21
2023-01-12T02:53:46.138Z,1007.18
2023-01-12T02:54:26.686Z,1007.21
2023-01-12T02:55:07.206Z,1007.22
2023-01-12T02:55:47.716Z,1007.2
2023-01-12T02:56:28.269Z,1007.28
2023-01-12T02:57:08.774Z,1007.31
2023-01-12T02:57:49.306Z,1007.29
2023-01-12T03:00:02.604Z,1007.26
2023-01-12T03:00:43.222Z,1007.3
2023-01-12T03:01:23.853Z,1007.25
2023-01-12T03:02:05.097Z,1007.31
2023-01-12T03:02:45.670Z,1007.22
2023-01-12T03:03:26.173Z,1007.19
2023-01-12T03:04:06.714Z,1007.25
2023-01-12T03:06:21.311Z,1007.17
2023-01-12T03:07:02.479Z,1007.22
2023-01-12T03:07:43.050Z,1007.22
2023-01-12T03:08:23.683Z,1007.17
2023-01-12T03:09:04.173Z,1007.24
2023-01-12T03:09:45.489Z,1007.26
2023-01-12T03:10:26.102Z,1007.21
2023-01-12T03:11:06.607Z,1007.18
2023-01-12T03:11:47.222Z,1007.24
2023-01-12T03:12:27.704Z,1007.09
2023-01-12T03:13:08.208Z,1007.15
2023-01-12T03:13:48.741Z,1007.21
2023-01-12T03:14:29.376Z,1007.09
2023-01-12T03:15:09.915Z,1007.12
2023-01-12T03:15:50.544Z,1007.06
2023-01-12T03:16:32.022Z,1007.09
2023-01-12T03:17:12.508Z,1006.97
2023-01-12T03:17:53.084Z,1007
2023-01-12T03:18:33.613Z,1007.03
2023-01-12T03:19:14.084Z,1006.98
2023-01-12T03:19:54.580Z,1006.99
2023-01-12T03:20:35.083Z,1007.01
2023-01-12T03:21:15.588Z,1007.1
2023-01-12T03:21:56.190Z,1007.1
2023-01-12T03:22:36.714Z,1007.1
2023-01-12T03:23:17.208Z,1007.16
2023-01-12T03:23:57.697Z,1007.15
2023-01-12T03:24:38.234Z,1007.15
2023-01-12T03:25:18.894Z,1007.11
2023-01-12T03:25:59.349Z,1007.15
2023-01-12T03:26:39.891Z,1007.1
2023-01-12T03:27:20.389Z,1007.08
2023-01-12T03:28:01.467Z,1007.14
2023-01-12T03:30:29.739Z,1007.13
2023-01-12T03:31:10.268Z,1007
2023-01-12T03:31:50.783Z,1006.98
2023-01-12T03:32:31.312Z,1007.11
2023-01-12T03:33:11.854Z,1006.99
2023-01-12T03:35:05.203Z,1007
2023-01-12T03:35:45.690Z,1007.18
2023-01-12T03:36:26.210Z,1007.04
2023-01-12T03:37:07.333Z,1007.01
2023-01-12T03:39:20.184Z,1007.02
2023-01-12T03:40:01.666Z,1006.96
2023-01-12T03:40:42.315Z,1006.95
2023-01-12T03:41:22.815Z,1007.04
2023-01-12T03:43:35.924Z,1006.87
2023-01-12T03:44:16.435Z,1006.98
2023-01-12T03:44:56.954Z,1006.97
2023-01-12T03:45:38.138Z,1007.16
2023-01-12T03:47:51.351Z,1007
2023-01-12T03:48:32.615Z,1006.93
2023-01-12T03:49:13.229Z,1006.96
2023-01-12T03:49:55.699Z,1006.91
2023-01-12T03:51:53.556Z,1006.99
2023-01-12T03:52:34.854Z,1007
2023-01-12T03:53:17.214Z,1006.97
2023-01-12T03:53:57.713Z,1007
2023-01-12T03:56:15.522Z,1007.04
2023-01-12T03:56:56.024Z,1007.05
2023-01-12T03:57:36.543Z,1006.98
2023-01-12T03:58:17.089Z,1007.08
2023-01-12T03:58:57.665Z,1006.86
2023-01-12T03:59:38.158Z,1006.96
2023-01-12T04:00:18.670Z,1006.97
2023-01-12T04:00:59.288Z,1007.06
2023-01-12T04:01:39.811Z,1006.94
2023-01-12T04:02:20.219Z,1006.98
2023-01-12T04:03:00.780Z,1006.99
2023-01-12T04:03:41.385Z,1007.06
2023-01-12T04:04:21.849Z,1007.03
2023-01-12T04:05:02.438Z,1006.97
2023-01-12T04:05:42.999Z,1007.09
2023-01-12T04:06:23.531Z,1007.08
2023-01-12T04:07:04.010Z,1007.06
2023-01-12T04:07:44.524Z,1007.05
2023-01-12T04:08:25.038Z,1007.02
2023-01-12T04:09:05.595Z,1007.08
2023-01-12T04:09:46.142Z,1007.08
2023-01-12T04:10:26.662Z,1007.06
2023-01-12T04:11:07.192Z,1007.05
2023-01-12T04:11:47.747Z,1007.03
2023-01-12T04:12:28.226Z,1007.04
2023-01-12T04:13:08.739Z,1007
2023-01-12T04:13:49.280Z,1007.02
2023-01-12T04:14:29.821Z,1007.01
2023-01-12T04:15:10.357Z,1007.1
2023-01-12T04:15:50.897Z,1007.01
2023-01-12T04:16:31.539Z,1007
2023-01-12T04:17:11.985Z,1007.02
2023-01-12T04:17:52.523Z,1007.03
2023-01-12T04:18:33.040Z,1007.04
2023-01-12T04:19:13.546Z,1007.07
2023-01-12T04:19:54.155Z,1007.07
2023-01-12T04:20:34.679Z,1007.09
2023-01-12T04:21:15.254Z,1007.04
2023-01-12T04:21:56.485Z,1007.03
2023-01-12T04:22:37.925Z,1007.05
2023-01-12T04:23:18.476Z,1007.04
2023-01-12T04:23:59.095Z,1007.03
2023-01-12T04:24:39.652Z,1007.09
2023-01-12T04:25:20.189Z,1007.07
2023-01-12T04:26:00.759Z,1007.08
2023-01-12T04:26:41.381Z,1007.09
2023-01-12T04:28:39.143Z,1007.05
2023-01-12T04:29:19.697Z,1007.03
2023-01-12T04:30:00.269Z,1006.97
2023-01-12T04:30:41.656Z,1007
2023-01-12T04:32:57.699Z,1006.95
2023-01-12T04:33:38.351Z,1006.95
2023-01-12T04:34:18.906Z,1006.91
2023-01-12T04:34:59.420Z,1006.99
2023-01-12T04:37:33.527Z,1006.93
2023-01-12T04:38:14.196Z,1006.94
2023-01-12T04:38:54.753Z,1007.08
2023-01-12T04:39:35.339Z,1006.95
2023-01-12T04:41:48.463Z,1007.04
2023-01-12T04:42:29.010Z,1006.98
2023-01-12T04:43:09.524Z,1006.97
2023-01-12T04:43:50.089Z,1006.94
2023-01-12T04:44:30.596Z,1007.01
2023-01-12T04:45:11.292Z,1006.95
2023-01-12T04:45:51.855Z,1006.94
2023-01-12T04:48:04.915Z,1006.91
2023-01-12T04:48:45.412Z,1006.9
2023-01-12T04:49:26.575Z,1007.01
2023-01-12T04:50:07.081Z,1006.85
2023-01-12T04:50:47.628Z,1006.93
2023-01-12T04:51:28.139Z,1006.96
2023-01-12T04:52:08.728Z,1006.94
2023-01-12T04:52:49.259Z,1006.9
2023-01-12T04:55:06.587Z,1006.9
2023-01-12T04:55:51.736Z,1006.9
2023-01-12T04:56:34.608Z,1006.93
2023-01-12T04:57:18.775Z,1006.91
2023-01-12T04:59:33.515Z,1007
2023-01-12T05:00:14.800Z,1007.06
2023-01-12T05:00:56.074Z,1006.91
2023-01-12T05:01:37.611Z,1007
2023-01-12T05:02:18.177Z,1007.07
2023-01-12T05:02:59.483Z,1007.14
2023-01-12T05:03:40.003Z,1006.9
2023-01-12T05:04:20.629Z,1007.01
2023-01-12T05:05:01.620Z,1006.99
2023-01-12T05:05:42.175Z,1007.04
2023-01-12T05:06:22.658Z,1007.05
2023-01-12T05:08:20.679Z,1007.11
2023-01-12T05:09:01.208Z,1007.05
2023-01-12T05:09:41.799Z,1007.07
2023-01-12T05:10:22.334Z,1007.04
2023-01-12T05:11:02.876Z,1006.97
2023-01-12T05:11:43.385Z,1006.9
2023-01-12T05:12:23.990Z,1006.97
2023-01-12T05:13:04.556Z,1006.97
2023-01-12T05:13:45.066Z,1006.93
2023-01-12T05:14:25.578Z,1006.88
2023-01-12T05:15:06.095Z,1006.93
2023-01-12T05:17:07.818Z,1006.78
2023-01-12T05:17:50.933Z,1006.84
2023-01-12T05:18:33.039Z,1006.81
2023-01-12T05:19:15.959Z,1006.79
2023-01-12T05:21:34.285Z,1006.73
2023-01-12T05:22:15.530Z,1006.82
2023-01-12T05:22:56.112Z,1006.76
2023-01-12T05:23:37.528Z,1006.71
2023-01-12T05:24:18.711Z,1006.68
2023-01-12T05:24:59.753Z,1006.73
2023-01-12T05:25:41.210Z,1006.61
2023-01-12T05:27:54.280Z,1006.73
2023-01-12T05:28:34.784Z,1006.71
2023-01-12T05:29:15.331Z,1006.69
2023-01-12T05:29:55.859Z,1006.52
2023-01-12T05:32:25.559Z,1006.5
2023-01-12T05:33:06.096Z,1006.54
2023-01-12T05:33:47.294Z,1006.49
2023-01-12T05:34:27.944Z,1006.47
2023-01-12T05:35:08.596Z,1006.45
2023-01-12T05:35:49.141Z,1006.39
2023-01-12T05:36:29.660Z,1006.41
2023-01-12T05:38:43.236Z,1006.41
2023-01-12T05:39:23.770Z,1006.36
2023-01-12T05:40:06.129Z,1006.42
2023-01-12T05:40:47.629Z,1006.22
2023-01-12T05:43:02.096Z,1006.28
2023-01-12T05:43:42.654Z,1006.22
2023-01-12T05:44:23.274Z,1006.15
2023-01-12T05:45:03.762Z,1006.15
2023-01-12T05:45:44.448Z,1006.15
2023-01-12T05:46:25.111Z,1006.19
2023-01-12T05:47:05.605Z,1006.18
2023-01-12T05:47:46.172Z,1006.13
2023-01-12T05:48:26.738Z,1006.13
2023-01-12T05:50:45.151Z,1006.01
2023-01-12T05:51:25.702Z,1006.04
2023-01-12T05:52:06.234Z,1006.17
2023-01-12T05:52:47.414Z,1006.04
2023-01-12T05:53:27.961Z,1006.08
2023-01-12T05:54:08.476Z,1006.01
2023-01-12T05:54:48.997Z,1006
2023-01-12T05:55:29.558Z,1006.04
2023-01-12T05:56:10.096Z,1006.06
2023-01-12T05:56:50.628Z,1005.99
2023-01-12T05:57:31.224Z,1005.97
2023-01-12T05:58:11.722Z,1005.91
2023-01-12T05:58:52.249Z,1006
2023-01-12T05:59:32.771Z,1005.97
2023-01-12T06:00:13.300Z,1005.92
2023-01-12T06:00:53.826Z,1005.83
2023-01-12T06:01:34.322Z,1005.92
2023-01-12T06:02:14.910Z,1005.98
2023-01-12T06:02:55.409Z,1006.01
2023-01-12T06:03:35.934Z,1006.03
2023-01-12T06:04:17.048Z,1005.91
2023-01-12T06:04:57.633Z,1005.93
2023-01-12T06:05:38.120Z,1005.86
2023-01-12T06:06:18.628Z,1005.91
2023-01-12T06:06:59.150Z,1005.89
2023-01-12T06:07:39.687Z,1005.9
2023-01-12T06:08:20.174Z,1005.92
2023-01-12T06:09:00.759Z,1005.87
2023-01-12T06:09:41.264Z,1005.78
2023-01-12T06:10:22.748Z,1005.79
2023-01-12T06:11:03.213Z,1005.78
2023-01-12T06:11:43.762Z,1005.8
2023-01-12T06:12:24.288Z,1005.82
2023-01-12T06:13:04.825Z,1005.81
2023-01-12T06:13:45.346Z,1005.78
2023-01-12T06:14:25.853Z,1005.65
2023-01-12T06:15:06.413Z,1005.75
2023-01-12T06:15:47.047Z,1005.58
2023-01-12T06:16:27.494Z,1005.78
2023-01-12T06:17:08.703Z,1005.77
2023-01-12T06:17:49.227Z,1005.64
2023-01-12T06:18:29.793Z,1005.78
2023-01-12T06:19:13.212Z,1005.71
2023-01-12T06:19:53.235Z,1005.61
2023-01-12T06:20:33.785Z,1005.68
2023-01-12T06:21:15.213Z,1005.64
2023-01-12T06:21:55.749Z,1005.57
2023-01-12T06:22:36.286Z,1005.54
2023-01-12T06:23:16.853Z,1005.66
2023-01-12T06:23:57.357Z,1005.67
2023-01-12T06:24:37.906Z,1005.72
2023-01-12T06:25:18.454Z,1005.7
2023-01-12T06:25:58.994Z,1005.61
2023-01-12T06:26:39.525Z,1005.64
2023-01-12T06:27:20.042Z,1005.67
2023-01-12T06:28:00.556Z,1005.66
2023-01-12T06:28:41.105Z,1005.6
2023-01-12T06:29:21.698Z,1005.72
2023-01-12T06:30:02.252Z,1005.63
2023-01-12T06:30:42.793Z,1005.55
2023-01-12T06:31:23.388Z,1005.69
2023-01-12T06:32:03.962Z,1005.7
2023-01-12T06:32:44.465Z,1005.55
2023-01-12T06:33:25.004Z,1005.67
2023-01-12T06:34:06.478Z,1005.79
2023-01-12T06:34:47.041Z,1005.61
2023-01-12T06:35:27.553Z,1005.6
2023-01-12T06:36:08.705Z,1005.66
2023-01-12T06:36:50.126Z,1005.72
2023-01-12T06:37:30.674Z,1005.75
2023-01-12T06:38:11.217Z,1005.77
2023-01-12T06:38:51.764Z,1005.68
2023-01-12T06:39:32.313Z,1005.79
2023-01-12T06:40:12.882Z,1005.65
2023-01-12T06:40:53.390Z,1005.65
2023-01-12T06:41:33.934Z,1005.76
2023-01-12T06:44:03.270Z,1005.67
2023-01-12T06:44:44.695Z,1005.76
2023-01-12T06:45:28.093Z,1005.76
2023-01-12T06:46:08.699Z,1005.76
2023-01-12T06:48:38.602Z,1005.76
2023-01-12T06:49:18.513Z,1005.56
2023-01-12T06:49:59.063Z,1005.82
2023-01-12T06:50:39.571Z,1005.78
2023-01-12T06:51:20.152Z,1005.53
2023-01-12T06:52:00.767Z,1005.56
2023-01-12T06:52:41.324Z,1005.56
2023-01-12T06:53:21.947Z,1005.63
2023-01-12T06:54:02.506Z,1005.49
2023-01-12T06:54:43.016Z,1005.53
2023-01-12T06:55:23.526Z,1005.56
2023-01-12T06:56:04.031Z,1005.5
2023-01-12T06:56:44.566Z,1005.52
2023-01-12T06:57:26.134Z,1005.65
2023-01-12T06:58:06.656Z,1005.53
2023-01-12T06:58:47.254Z,1005.42
2023-01-12T06:59:27.802Z,1005.51
2023-01-12T07:00:08.409Z,1005.53
2023-01-12T07:00:48.958Z,1005.45
2023-01-12T07:01:29.599Z,1005.4
2023-01-12T07:02:10.719Z,1005.4
2023-01-12T07:02:51.196Z,1005.61
2023-01-12T07:03:32.491Z,1005.49
2023-01-12T07:04:13.067Z,1005.58
2023-01-12T07:04:54.173Z,1005.52
2023-01-12T07:05:34.655Z,1005.58
2023-01-12T07:06:15.181Z,1005.39
2023-01-12T07:06:55.828Z,1005.4
2023-01-12T07:07:37.586Z,1005.45
2023-01-12T07:08:16.938Z,1005.33
2023-01-12T07:08:57.524Z,1005.44
2023-01-12T07:09:38.060Z,1005.5
2023-01-12T07:10:18.582Z,1005.47
2023-01-12T07:10:59.138Z,1005.32
2023-01-12T07:11:39.667Z,1005.54
2023-01-12T07:12:20.207Z,1005.47
2023-01-12T07:13:00.820Z,1005.42
2023-01-12T07:13:41.343Z,1005.43
2023-01-12T07:14:21.983Z,1005.49
2023-01-12T07:15:02.545Z,1005.48
2023-01-12T07:15:43.119Z,1005.51
2023-01-12T07:16:23.680Z,1005.49
2023-01-12T07:17:04.188Z,1005.31
2023-01-12T07:17:44.782Z,1005.52
2023-01-12T07:18:25.303Z,1005.51
2023-01-12T07:19:05.825Z,1005.48
2023-01-12T07:19:46.537Z,1005.46
2023-01-12T07:20:27.080Z,1005.47
2023-01-12T07:21:07.593Z,1005.45
2023-01-12T07:21:48.114Z,1005.39
2023-01-12T07:22:28.707Z,1005.38
2023-01-12T07:23:10.820Z,1005.35
2023-01-12T07:23:51.367Z,1005.46
2023-01-12T07:24:32.036Z,1005.38
2023-01-12T07:25:12.631Z,1005.42
2023-01-12T07:25:53.308Z,1005.48
2023-01-12T07:26:33.754Z,1005.43
2023-01-12T07:27:14.280Z,1005.41
2023-01-12T07:27:55.406Z,1005.33
2023-01-12T07:28:35.948Z,1005.28
2023-01-12T07:30:33.918Z,1005.32
2023-01-12T07:31:14.467Z,1005.39
2023-01-12T07:31:54.982Z,1005.28
2023-01-12T07:32:35.551Z,1005.26
2023-01-12T07:33:18.493Z,1005.27
2023-01-12T07:33:56.689Z,1004.95
2023-01-12T07:34:37.203Z,1005.29
2023-01-12T07:35:17.755Z,1005.31
2023-01-12T07:35:58.386Z,1005.31
2023-01-12T07:36:38.804Z,1005.36
2023-01-12T07:37:19.391Z,1005.4
2023-01-12T07:38:00.502Z,1005.33
2023-01-12T07:38:41.045Z,1005.44
2023-01-12T07:39:21.606Z,1005.41
2023-01-12T07:40:02.133Z,1005.58
2023-01-12T07:40:42.734Z,1005.41
2023-01-12T07:41:23.273Z,1005.35
2023-01-12T07:42:03.808Z,1005.38
2023-01-12T07:42:44.432Z,1005.46
2023-01-12T07:43:24.991Z,1005.43
2023-01-12T07:44:05.528Z,1005.55
2023-01-12T07:47:21.942Z,1005.56
2023-01-12T07:48:02.489Z,1005.5
2023-01-12T07:48:43.091Z,1005.71
2023-01-12T07:49:23.626Z,1005.51
2023-01-12T07:50:04.167Z,1005.62
2023-01-12T07:50:44.695Z,1005.52
2023-01-12T07:51:25.215Z,1005.86
2023-01-12T07:52:05.833Z,1005.63
2023-01-12T07:52:46.374Z,1005.58
2023-01-12T07:53:26.946Z,1005.47
2023-01-12T07:54:07.687Z,1005.56
2023-01-12T07:54:48.201Z,1005.63
2023-01-12T07:55:29.729Z,1005.68
2023-01-12T07:56:10.255Z,1005.62
2023-01-12T07:56:50.782Z,1005.64
2023-01-12T07:57:31.374Z,1005.58
2023-01-12T07:58:12.759Z,1005.65
2023-01-12T07:58:53.293Z,1005.63
2023-01-12T07:59:33.793Z,1005.67
2023-01-12T08:00:15.120Z,1005.7
2023-01-12T08:00:55.797Z,1005.62
2023-01-12T08:01:36.361Z,1005.63
2023-01-12T08:02:17.629Z,1005.57
2023-01-12T08:02:58.140Z,1005.7
2023-01-12T08:03:38.693Z,1005.65
2023-01-12T08:04:19.248Z,1005.71
2023-01-12T08:05:00.538Z,1005.8
2023-01-12T08:05:41.088Z,1005.83
2023-01-12T08:06:21.670Z,1005.95
2023-01-12T08:08:50.623Z,1005.7
2023-01-12T08:09:33.598Z,1005.77
2023-01-12T08:10:20.759Z,1005.79
2023-01-12T08:11:01.271Z,1005.84
2023-01-12T08:12:53.895Z,1005.84
2023-01-12T08:13:34.530Z,1005.76
2023-01-12T08:14:14.974Z,1005.75
2023-01-12T08:14:55.487Z,1005.72
2023-01-12T08:17:23.852Z,1005.81
2023-01-12T08:18:06.177Z,1005.83
2023-01-12T08:18:46.317Z,1005.76
2023-01-12T08:19:27.819Z,1005.79
2023-01-12T08:21:41.280Z,1005.74
2023-01-12T08:22:21.842Z,1005.67
2023-01-12T08:23:02.386Z,1005.64
2023-01-12T08:23:43.847Z,1005.61
2023-01-12T08:24:24.465Z,1005.83
2023-01-12T08:25:04.962Z,1005.69
2023-01-12T08:25:45.483Z,1005.75
2023-01-12T08:26:26.498Z,1005.45
2023-01-12T08:27:07.095Z,1005.73
2023-01-12T08:27:47.568Z,1005.55
2023-01-12T08:28:28.108Z,1005.74
2023-01-12T08:29:08.707Z,1005.5
2023-01-12T08:29:49.822Z,1005.79
2023-01-12T08:30:30.369Z,1005.7
2023-01-12T08:31:10.937Z,1005.64
2023-01-12T08:31:51.411Z,1005.65
2023-01-12T08:32:31.962Z,1005.74
2023-01-12T08:33:13.088Z,1005.53
2023-01-12T08:33:53.587Z,1005.62
2023-01-12T08:34:34.112Z,1005.59
2023-01-12T08:35:15.519Z,1005.8
2023-01-12T08:35:56.049Z,1005.64
2023-01-12T08:36:36.573Z,1005.67
2023-01-12T08:37:17.115Z,1005.89
2023-01-12T08:37:57.666Z,1005.77
2023-01-12T08:38:38.258Z,1005.69
2023-01-12T08:39:18.779Z,1005.83
2023-01-12T08:39:59.352Z,1005.86
2023-01-12T08:40:39.867Z,1005.82
2023-01-12T08:41:20.939Z,1005.87
2023-01-12T08:42:01.491Z,1005.72
2023-01-12T08:42:42.039Z,1005.75
2023-01-12T08:43:22.586Z,1005.77
2023-01-12T08:44:03.154Z,1005.68
2023-01-12T08:44:43.690Z,1005.72
2023-01-12T08:45:24.801Z,1005.8
2023-01-12T08:46:05.303Z,1005.7
2023-01-12T08:46:45.932Z,1005.7
2023-01-12T08:47:26.400Z,1005.76
2023-01-12T08:48:06.953Z,1005.79
2023-01-12T08:48:47.511Z,1005.67
2023-01-12T08:49:28.066Z,1005.79
2023-01-12T08:50:08.603Z,1005.64
2023-01-12T08:50:49.163Z,1005.77
2023-01-12T08:51:29.711Z,1005.82
2023-01-12T08:52:10.293Z,1005.71
2023-01-12T08:52:50.808Z,1005.78
2023-01-12T08:53:31.393Z,1005.7
2023-01-12T08:54:11.937Z,1006.12
2023-01-12T08:54:52.465Z,1005.81
2023-01-12T08:55:33.040Z,1005.77
2023-01-12T08:56:13.572Z,1005.85
2023-01-12T08:58:27.131Z,1005.7
2023-01-12T08:59:08.317Z,1005.83
2023-01-12T08:59:48.853Z,1005.63
2023-01-12T09:00:34.273Z,1005.84
2023-01-12T09:02:34.311Z,1005.91
2023-01-12T09:03:14.784Z,1005.82
2023-01-12T09:03:55.338Z,1005.86
2023-01-12T09:04:36.398Z,1005.93
2023-01-12T09:05:16.902Z,1005.94
2023-01-12T09:05:58.280Z,1005.96
2023-01-12T09:06:38.878Z,1005.94
2023-01-12T09:07:20.026Z,1005.83
2023-01-12T09:08:00.575Z,1005.99
2023-01-12T09:08:41.892Z,1005.9
2023-01-12T09:10:39.907Z,1005.78
2023-01-12T09:11:20.468Z,1005.84
2023-01-12T09:12:00.993Z,1005.83
2023-01-12T09:12:41.542Z,1005.8
2023-01-12T09:13:22.083Z,1005.93
2023-01-12T09:15:35.186Z,1005.99
2023-01-12T09:16:15.804Z,1005.91
2023-01-12T09:16:56.348Z,1006.06
2023-01-12T09:17:36.863Z,1005.94
2023-01-12T09:18:19.091Z,1005.93
2023-01-12T09:18:57.962Z,1006.03
2023-01-12T09:19:38.518Z,1005.94
2023-01-12T09:21:52.457Z,1006.03
2023-01-12T09:22:32.984Z,1006.03
2023-01-12T09:23:13.483Z,1005.89
2023-01-12T09:23:54.001Z,1005.92
2023-01-12T09:24:34.562Z,1005.98
2023-01-12T09:25:15.111Z,1006.21
2023-01-12T09:27:28.292Z,1006.07
2023-01-12T09:28:08.791Z,1006.01
2023-01-12T09:28:49.328Z,1006
2023-01-12T09:29:29.875Z,1006.05
2023-01-12T09:30:11.185Z,1005.98
2023-01-12T09:30:51.787Z,1006
2023-01-12T09:31:33.003Z,1006.06
2023-01-12T09:32:13.483Z,1006.04
2023-01-12T09:32:53.979Z,1006.15
2023-01-12T09:33:34.522Z,1006.04
2023-01-12T09:34:15.051Z,1006.03